createdAt,value
2023-08-11T00:00:00.899Z,68.94929
2023-08-11T00:05:02.060Z,69.20325
2023-08-11T00:10:02.985Z,69.45825
2023-08-11T00:15:03.882Z,69.45825
2023-08-11T00:20:04.872Z,69.45825
2023-08-11T00:25:05.790Z,69.45825
2023-08-11T00:30:06.830Z,69.45825
2023-08-11T00:35:07.731Z,69.71429
2023-08-11T00:40:08.673Z,69.71429
2023-08-11T00:45:09.574Z,69.71429
2023-08-11T00:50:10.514Z,69.97137
2023-08-11T00:55:11.388Z,69.97137
2023-08-11T01:00:12.354Z,69.97137
2023-08-11T01:05:13.337Z,69.97137
2023-08-11T01:10:14.334Z,70.22951
2023-08-11T01:15:15.311Z,70.22951
2023-08-11T01:20:16.312Z,70.22951
2023-08-11T01:25:17.288Z,70.48871
2023-08-11T01:30:18.188Z,70.48871
2023-08-11T01:35:25.921Z,70.48871
2023-08-11T01:40:35.119Z,70.48871
2023-08-11T01:45:36.091Z,70.74897
2023-08-11T01:50:37.008Z,70.74897
2023-08-11T01:55:37.937Z,70.74897
2023-08-11T02:00:38.813Z,70.74897
2023-08-11T02:05:39.752Z,70.74897
2023-08-11T02:10:40.632Z,71.01031
2023-08-11T02:15:41.593Z,70.74897
2023-08-11T02:20:42.514Z,70.74897
2023-08-11T02:25:43.444Z,70.74897
2023-08-11T02:30:44.407Z,70.74897
2023-08-11T02:35:45.429Z,70.48871
2023-08-11T02:40:46.366Z,70.48871
2023-08-11T02:45:47.378Z,70.48871
2023-08-11T02:50:48.309Z,70.48871
2023-08-11T02:55:49.268Z,70.22951
2023-08-11T03:00:50.248Z,70.22951
2023-08-11T03:05:51.320Z,70.22951
2023-08-11T03:10:57.259Z,70.22951
2023-08-11T03:15:58.633Z,69.97137
2023-08-11T03:21:13.563Z,69.97137
2023-08-11T03:26:20.141Z,69.97137
2023-08-11T03:31:21.062Z,69.71429
2023-08-11T03:36:22.101Z,69.71429
2023-08-11T03:41:23.008Z,69.71429
2023-08-11T03:46:23.963Z,69.71429
2023-08-11T03:51:25.256Z,69.71429
2023-08-11T03:56:26.529Z,69.71429
2023-08-11T04:01:27.784Z,69.45825
2023-08-11T04:06:29.075Z,69.45825
2023-08-11T04:11:30.022Z,69.45825
2023-08-11T04:16:30.992Z,69.45825
2023-08-11T04:21:32.079Z,69.45825
2023-08-11T04:26:32.990Z,69.20325
2023-08-11T04:31:33.972Z,69.45825
2023-08-11T04:36:34.908Z,69.20325
2023-08-11T04:41:35.808Z,68.94929
2023-08-11T04:46:36.781Z,68.94929
2023-08-11T04:51:37.803Z,68.94929
2023-08-11T04:56:38.722Z,68.94929
2023-08-11T05:01:39.687Z,68.69636
2023-08-11T05:06:40.640Z,68.69636
2023-08-11T05:11:41.570Z,68.44444
2023-08-11T05:16:42.542Z,68.44444
2023-08-11T05:21:43.589Z,68.19355
2023-08-11T05:26:44.499Z,67.94366
2023-08-11T05:31:45.575Z,67.69478
2023-08-11T05:36:46.561Z,67.69478
2023-08-11T05:41:47.512Z,67.44689
2023-08-11T05:46:48.527Z,67.2
2023-08-11T05:51:49.616Z,67.2
2023-08-11T05:56:50.522Z,66.70916
2023-08-11T06:01:51.539Z,66.22222
2023-08-11T06:06:52.581Z,65.9802
2023-08-11T06:11:53.489Z,65.73913
2023-08-11T06:16:54.466Z,65.49901
2023-08-11T06:21:55.389Z,65.25984
2023-08-11T06:26:56.323Z,65.49901
2023-08-11T06:31:57.565Z,65.25984
2023-08-11T06:36:58.533Z,65.02161
2023-08-11T06:41:59.451Z,65.73913
2023-08-11T06:47:00.361Z,65.02161
2023-08-11T06:52:01.477Z,65.25984
2023-08-11T06:57:02.429Z,65.02161
2023-08-11T07:02:03.564Z,64.3125
2023-08-11T07:07:04.529Z,64.3125
2023-08-11T07:12:05.415Z,64.54795
2023-08-11T07:17:06.506Z,64.3125
2023-08-11T07:22:07.570Z,64.07797
2023-08-11T07:27:08.637Z,64.07797
2023-08-11T07:32:09.729Z,63.61165
2023-08-11T07:37:11.037Z,63.37984
2023-08-11T07:42:12.156Z,63.84436
2023-08-11T07:47:13.083Z,63.61165
2023-08-11T07:52:14.011Z,64.07797
2023-08-11T07:57:16.894Z,63.37984
2023-08-11T08:02:19.302Z,62.91892
2023-08-11T08:07:20.212Z,62.91892
2023-08-11T08:12:21.214Z,64.54795
2023-08-11T08:17:22.148Z,63.61165
2023-08-11T08:22:23.081Z,63.37984
2023-08-11T08:27:24.038Z,62.68979
2023-08-11T08:32:25.062Z,64.54795
2023-08-11T08:37:26.326Z,64.07797
2023-08-11T08:42:27.561Z,63.37984
2023-08-11T08:47:28.790Z,64.54795
2023-08-11T08:52:29.731Z,64.3125
2023-08-11T08:57:30.648Z,64.54795
2023-08-11T09:02:31.762Z,65.25984
2023-08-11T09:07:32.815Z,64.07797
2023-08-11T09:12:33.806Z,65.02161
2023-08-11T09:17:34.883Z,65.25984
2023-08-11T09:22:35.850Z,65.9802
2023-08-11T09:27:36.734Z,67.94366
2023-08-11T09:32:37.675Z,67.44689
2023-08-11T09:37:38.637Z,65.9802
2023-08-11T09:42:39.565Z,64.3125
2023-08-11T09:47:40.577Z,63.37984
2023-08-11T09:52:41.589Z,63.37984
2023-08-11T09:57:42.522Z,64.78431
2023-08-11T10:02:43.497Z,65.02161
2023-08-11T10:07:44.479Z,64.54795
2023-08-11T10:12:45.641Z,63.37984
2023-08-11T10:17:46.697Z,68.19355
2023-08-11T10:22:47.718Z,64.54795
2023-08-11T10:27:48.654Z,64.78431
2023-08-11T10:32:49.702Z,64.54795
2023-08-11T10:37:50.657Z,63.84436
2023-08-11T10:42:51.557Z,62.68979
2023-08-11T10:47:52.537Z,63.61165
2023-08-11T10:52:53.449Z,63.14894
2023-08-11T10:57:54.397Z,62.68979
2023-08-11T11:02:55.364Z,63.84436
2023-08-11T11:07:56.413Z,62.91892
2023-08-11T11:12:57.453Z,63.14894
2023-08-11T11:17:58.392Z,64.3125
2023-08-11T11:22:59.356Z,62.91892
2023-08-11T11:28:00.301Z,63.61165
2023-08-11T11:33:03.641Z,65.49901
2023-08-11T11:38:05.982Z,65.49901
2023-08-11T11:43:06.920Z,64.54795
2023-08-11T11:48:07.897Z,63.37984
2023-08-11T11:53:08.945Z,65.02161
2023-08-11T11:58:09.891Z,66.46521
2023-08-11T12:03:10.883Z,64.54795
2023-08-11T12:08:11.825Z,63.61165
2023-08-11T12:13:12.737Z,62.23417
2023-08-11T12:18:13.707Z,60.88805
2023-08-11T12:23:14.639Z,63.14894
2023-08-11T12:28:15.597Z,63.14894
2023-08-11T12:33:16.595Z,61.78203
2023-08-11T12:38:17.707Z,66.70916
2023-08-11T12:43:18.639Z,63.84436
2023-08-11T12:48:19.587Z,62.91892
2023-08-11T12:53:20.529Z,60.00753
2023-08-11T12:58:21.455Z,58.07407
2023-08-11T13:03:22.376Z,58.49814
2023-08-11T13:08:23.397Z,57.02752
2023-08-11T13:13:24.337Z,57.02752
2023-08-11T13:18:25.471Z,57.65314
2023-08-11T13:23:26.720Z,57.02752
2023-08-11T13:28:27.935Z,56.82051
2023-08-11T13:33:29.223Z,58.92537
2023-08-11T13:38:30.428Z,57.02752
2023-08-11T13:43:31.410Z,57.44383
2023-08-11T13:48:32.341Z,57.23529
2023-08-11T13:53:33.435Z,59.78947
2023-08-11T13:58:34.353Z,59.78947
2023-08-11T14:03:35.295Z,58.49814
2023-08-11T14:08:36.249Z,56.0
2023-08-11T14:13:37.244Z,54.79137
2023-08-11T14:18:38.231Z,54.19678
2023-08-11T14:23:39.179Z,54.99099
2023-08-11T14:28:40.164Z,57.23529
2023-08-11T14:33:41.298Z,55.19134
2023-08-11T14:38:42.343Z,54.0
2023-08-11T14:43:43.302Z,56.0
2023-08-11T14:48:44.201Z,55.19134
2023-08-11T14:53:45.157Z,54.19678
2023-08-11T14:58:46.124Z,55.39241
2023-08-11T15:03:47.076Z,54.99099
2023-08-11T15:08:48.192Z,55.79673
2023-08-11T15:13:49.205Z,55.19134
2023-08-11T15:18:50.136Z,55.19134
2023-08-11T15:23:51.068Z,55.39241
2023-08-11T15:28:52.004Z,54.19678
2023-08-11T15:33:52.909Z,54.19678
2023-08-11T15:38:53.869Z,54.99099
2023-08-11T15:43:54.902Z,56.0
2023-08-11T15:48:55.905Z,55.39241
2023-08-11T15:53:56.933Z,54.79137
2023-08-11T15:58:57.991Z,56.40876
2023-08-11T16:03:59.028Z,56.61426
2023-08-11T16:09:00.233Z,56.20401
2023-08-11T16:14:01.370Z,56.40876
2023-08-11T16:19:02.324Z,56.61426
2023-08-11T16:24:03.349Z,57.02752
2023-08-11T16:29:04.330Z,56.61426
2023-08-11T16:34:05.259Z,56.0
2023-08-11T16:39:06.240Z,57.44383
2023-08-11T16:44:07.141Z,57.02752
2023-08-11T16:49:08.100Z,57.44383
2023-08-11T16:54:09.596Z,56.82051
2023-08-11T16:59:10.977Z,56.40876
2023-08-11T17:04:11.987Z,56.0
2023-08-11T17:09:13.078Z,56.20401
2023-08-11T17:14:14.021Z,56.0
2023-08-11T17:19:15.028Z,55.79673
2023-08-11T17:24:15.937Z,55.79673
2023-08-11T17:29:16.888Z,55.79673
2023-08-11T17:34:17.803Z,56.0
2023-08-11T17:39:18.725Z,55.79673
2023-08-11T17:44:19.682Z,56.0
2023-08-11T17:49:20.613Z,56.20401
2023-08-11T17:54:21.519Z,56.20401
2023-08-11T17:59:22.418Z,56.20401
2023-08-11T18:04:23.336Z,56.40876
2023-08-11T18:09:24.312Z,56.40876
2023-08-11T18:14:25.214Z,56.61426
2023-08-11T18:19:26.447Z,56.82051
2023-08-11T18:24:27.660Z,56.82051
2023-08-11T18:29:28.921Z,57.02752
2023-08-11T18:34:30.198Z,57.23529
2023-08-11T18:39:31.158Z,57.44383
2023-08-11T18:44:32.087Z,57.44383
2023-08-11T18:49:33.109Z,57.65314
2023-08-11T18:54:34.039Z,57.44383
2023-08-11T18:59:34.968Z,57.65314
2023-08-11T19:04:35.873Z,57.86322
2023-08-11T19:09:36.810Z,57.86322
2023-08-11T19:14:37.734Z,58.28571
2023-08-11T19:19:38.654Z,58.49814
2023-08-11T19:24:39.594Z,58.28571
2023-08-11T19:29:40.532Z,58.49814
2023-08-11T19:34:41.464Z,58.49814
2023-08-11T19:39:42.470Z,58.71136
2023-08-11T19:44:43.404Z,58.71136
2023-08-11T19:49:44.453Z,58.71136
2023-08-11T19:54:45.455Z,58.49814
2023-08-11T19:59:46.360Z,58.92537
2023-08-11T20:04:47.288Z,58.71136
2023-08-11T20:09:48.235Z,59.14019
2023-08-11T20:14:49.185Z,59.14019
2023-08-11T20:19:50.215Z,59.14019
2023-08-11T20:24:51.106Z,59.14019
2023-08-11T20:29:52.122Z,59.14019
2023-08-11T20:34:53.092Z,59.14019
2023-08-11T20:39:54.363Z,59.35581
2023-08-11T20:44:55.305Z,59.57223
2023-08-11T20:49:56.260Z,59.35581
2023-08-11T20:54:57.237Z,59.35581
2023-08-11T20:59:58.220Z,59.35581
2023-08-11T21:04:59.145Z,59.35581
2023-08-11T21:10:00.567Z,59.57223
2023-08-11T21:15:01.723Z,59.78947
2023-08-11T21:20:02.647Z,59.78947
2023-08-11T21:25:03.547Z,59.78947
2023-08-11T21:30:04.497Z,59.57223
2023-08-11T21:35:05.468Z,59.78947
2023-08-11T21:40:06.404Z,59.78947
2023-08-11T21:45:07.340Z,59.78947
2023-08-11T21:50:08.291Z,59.78947
2023-08-11T21:55:09.232Z,60.00753
2023-08-11T22:00:10.185Z,60.00753
2023-08-11T22:05:11.114Z,59.78947
2023-08-11T22:10:12.046Z,60.00753
2023-08-11T22:15:12.975Z,60.22642
2023-08-11T22:20:13.924Z,60.22642
2023-08-11T22:25:14.872Z,60.44612
2023-08-11T22:30:15.826Z,60.22642
2023-08-11T22:35:16.801Z,60.22642
2023-08-11T22:40:17.791Z,60.44612
2023-08-11T22:45:18.724Z,60.44612
2023-08-11T22:50:19.692Z,60.44612
2023-08-11T22:55:20.612Z,60.66667
2023-08-11T23:00:21.628Z,60.66667
2023-08-11T23:05:22.593Z,60.66667
2023-08-11T23:10:23.552Z,60.88805
2023-08-11T23:15:24.499Z,60.88805
2023-08-11T23:20:25.450Z,60.88805
2023-08-11T23:25:26.542Z,60.88805
2023-08-11T23:30:27.806Z,60.88805
2023-08-11T23:35:29.026Z,60.88805
2023-08-11T23:40:30.319Z,60.66667
2023-08-11T23:45:31.559Z,60.88805
2023-08-11T23:50:32.511Z,60.88805
2023-08-11T23:55:33.469Z,60.88805
